sensor_id;sensor_type;location;lat;lon;timestamp;pressure;altitude;pressure_sealevel;temperature;humidity
55685;BME280;41883;49.544;8.646;2023-04-22T00:01:16;99850.63;;;11.71;nan
55685;BME280;41883;49.544;8.646;2023-04-22T00:03:41;99843.00;;;11.67;nan
55685;BME280;41883;49.544;8.646;2023-04-22T00:06:08;99850.63;;;11.71;nan
55685;BME280;41883;49.544;8.646;2023-04-22T00:08:33;99837.31;;;11.79;nan
55685;BME280;41883;49.544;8.646;2023-04-22T00:11:01;99830.97;;;11.88;nan
55685;BME280;41883;49.544;8.646;2023-04-22T00:13:27;99827.38;;;12.04;nan
55685;BME280;41883;49.544;8.646;2023-04-22T00:15:52;99834.72;;;12.17;nan
55685;BME280;41883;49.544;8.646;2023-04-22T00:18:17;99828.34;;;12.26;nan
55685;BME280;41883;49.544;8.646;2023-04-22T00:20:42;99828.09;;;12.36;nan
55685;BME280;41883;49.544;8.646;2023-04-22T00:23:08;99828.84;;;12.44;nan
55685;BME280;41883;49.544;8.646;2023-04-22T00:25:33;99834.06;;;12.52;nan
55685;BME280;41883;49.544;8.646;2023-04-22T00:27:59;99828.66;;;12.61;nan
55685;BME280;41883;49.544;8.646;2023-04-22T00:30:24;99830.59;;;12.67;nan
55685;BME280;41883;49.544;8.646;2023-04-22T00:32:49;99824.91;;;12.70;nan
55685;BME280;41883;49.544;8.646;2023-04-22T00:35:15;99818.41;;;12.72;nan
55685;BME280;41883;49.544;8.646;2023-04-22T00:37:40;99810.00;;;12.69;nan
55685;BME280;41883;49.544;8.646;2023-04-22T00:40:05;99813.66;;;12.68;nan
55685;BME280;41883;49.544;8.646;2023-04-22T00:42:31;99816.13;;;12.69;nan
55685;BME280;41883;49.544;8.646;2023-04-22T00:44:56;99812.94;;;12.74;nan
55685;BME280;41883;49.544;8.646;2023-04-22T00:47:21;99825.81;;;12.77;nan
55685;BME280;41883;49.544;8.646;2023-04-22T00:49:50;99825.00;;;12.77;nan
55685;BME280;41883;49.544;8.646;2023-04-22T00:52:15;99816.41;;;12.74;nan
55685;BME280;41883;49.544;8.646;2023-04-22T00:54:41;99818.63;;;12.71;nan
55685;BME280;41883;49.544;8.646;2023-04-22T00:57:06;99824.47;;;12.66;nan
55685;BME280;41883;49.544;8.646;2023-04-22T00:59:31;99819.06;;;12.60;nan
55685;BME280;41883;49.544;8.646;2023-04-22T01:01:57;99808.56;;;12.51;nan
55685;BME280;41883;49.544;8.646;2023-04-22T01:04:22;99810.28;;;12.44;nan
55685;BME280;41883;49.544;8.646;2023-04-22T01:06:48;99814.84;;;12.36;nan
55685;BME280;41883;49.544;8.646;2023-04-22T01:09:15;99815.75;;;12.28;nan
55685;BME280;41883;49.544;8.646;2023-04-22T01:11:41;99820.13;;;12.21;nan
55685;BME280;41883;49.544;8.646;2023-04-22T01:14:06;99815.34;;;12.16;nan
55685;BME280;41883;49.544;8.646;2023-04-22T01:16:31;99809.94;;;12.09;nan
55685;BME280;41883;49.544;8.646;2023-04-22T01:18:59;99810.31;;;12.06;nan
55685;BME280;41883;49.544;8.646;2023-04-22T01:21:25;99805.53;;;12.02;nan
55685;BME280;41883;49.544;8.646;2023-04-22T01:23:50;99806.88;;;11.98;nan
55685;BME280;41883;49.544;8.646;2023-04-22T01:26:15;99811.09;;;11.92;nan
55685;BME280;41883;49.544;8.646;2023-04-22T01:28:41;99811.75;;;11.86;nan
55685;BME280;41883;49.544;8.646;2023-04-22T01:31:06;99812.28;;;11.81;nan
55685;BME280;41883;49.544;8.646;2023-04-22T01:33:32;99815.47;;;11.77;nan
55685;BME280;41883;49.544;8.646;2023-04-22T01:35:57;99819.66;;;11.71;nan
55685;BME280;41883;49.544;8.646;2023-04-22T01:38:23;99819.38;;;11.66;nan
55685;BME280;41883;49.544;8.646;2023-04-22T01:40:48;99826.53;;;11.57;nan
55685;BME280;41883;49.544;8.646;2023-04-22T01:43:14;99833.16;;;11.53;nan
55685;BME280;41883;49.544;8.646;2023-04-22T01:45:39;99828.88;;;11.52;nan
55685;BME280;41883;49.544;8.646;2023-04-22T01:48:08;99825.41;;;11.52;nan
55685;BME280;41883;49.544;8.646;2023-04-22T01:50:37;99837.19;;;11.49;nan
55685;BME280;41883;49.544;8.646;2023-04-22T01:53:11;99839.34;;;11.45;nan
55685;BME280;41883;49.544;8.646;2023-04-22T01:55:37;99838.03;;;11.41;nan
55685;BME280;41883;49.544;8.646;2023-04-22T01:58:10;99836.56;;;11.39;nan
55685;BME280;41883;49.544;8.646;2023-04-22T02:00:41;99844.03;;;11.35;nan
55685;BME280;41883;49.544;8.646;2023-04-22T02:06:01;99845.53;;;11.30;nan
55685;BME280;41883;49.544;8.646;2023-04-22T02:08:53;99840.44;;;11.28;nan
55685;BME280;41883;49.544;8.646;2023-04-22T02:14:21;99844.25;;;11.25;nan
55685;BME280;41883;49.544;8.646;2023-04-22T02:16:49;99838.97;;;11.25;nan
55685;BME280;41883;49.544;8.646;2023-04-22T02:19:29;99839.28;;;11.22;nan
55685;BME280;41883;49.544;8.646;2023-04-22T02:21:57;99832.34;;;11.21;nan
55685;BME280;41883;49.544;8.646;2023-04-22T02:24:26;99828.06;;;11.20;nan
55685;BME280;41883;49.544;8.646;2023-04-22T02:26:56;99827.72;;;11.23;nan
55685;BME280;41883;49.544;8.646;2023-04-22T02:29:35;99819.63;;;11.25;nan
55685;BME280;41883;49.544;8.646;2023-04-22T02:32:09;99820.59;;;11.24;nan
55685;BME280;41883;49.544;8.646;2023-04-22T02:34:37;99823.44;;;11.14;nan
55685;BME280;41883;49.544;8.646;2023-04-22T02:37:07;99828.97;;;11.04;nan
55685;BME280;41883;49.544;8.646;2023-04-22T02:39:50;99823.88;;;10.95;nan
55685;BME280;41883;49.544;8.646;2023-04-22T02:45:23;99825.38;;;10.89;nan
55685;BME280;41883;49.544;8.646;2023-04-22T02:48:15;99821.59;;;10.92;nan
55685;BME280;41883;49.544;8.646;2023-04-22T02:50:58;99825.56;;;10.88;nan
55685;BME280;41883;49.544;8.646;2023-04-22T02:53:34;99832.84;;;10.86;nan
55685;BME280;41883;49.544;8.646;2023-04-22T02:56:18;99828.56;;;10.84;nan
55685;BME280;41883;49.544;8.646;2023-04-22T02:58:54;99838.28;;;10.84;nan
55685;BME280;41883;49.544;8.646;2023-04-22T03:01:26;99839.44;;;10.81;nan
55685;BME280;41883;49.544;8.646;2023-04-22T03:04:07;99844.28;;;10.78;nan
55685;BME280;41883;49.544;8.646;2023-04-22T03:06:55;99849.41;;;10.71;nan
55685;BME280;41883;49.544;8.646;2023-04-22T03:09:21;99846.44;;;10.66;nan
55685;BME280;41883;49.544;8.646;2023-04-22T03:11:58;99854.72;;;10.63;nan
55685;BME280;41883;49.544;8.646;2023-04-22T03:14:47;99859.16;;;10.62;nan
55685;BME280;41883;49.544;8.646;2023-04-22T03:17:28;99858.50;;;10.60;nan
55685;BME280;41883;49.544;8.646;2023-04-22T03:22:37;99859.53;;;10.51;nan
55685;BME280;41883;49.544;8.646;2023-04-22T03:25:13;99856.53;;;10.46;nan
55685;BME280;41883;49.544;8.646;2023-04-22T03:27:47;99850.78;;;10.43;nan
55685;BME280;41883;49.544;8.646;2023-04-22T03:30:15;99856.41;;;10.39;nan
55685;BME280;41883;49.544;8.646;2023-04-22T03:32:43;99848.97;;;10.35;nan
55685;BME280;41883;49.544;8.646;2023-04-22T03:35:14;99843.19;;;10.31;nan
55685;BME280;41883;49.544;8.646;2023-04-22T03:37:48;99843.00;;;10.25;nan
55685;BME280;41883;49.544;8.646;2023-04-22T03:40:18;99848.28;;;10.16;nan
55685;BME280;41883;49.544;8.646;2023-04-22T03:42:58;99846.63;;;10.07;nan
55685;BME280;41883;49.544;8.646;2023-04-22T03:45:36;99841.38;;;9.99;nan
55685;BME280;41883;49.544;8.646;2023-04-22T03:48:03;99843.69;;;9.94;nan
55685;BME280;41883;49.544;8.646;2023-04-22T03:50:35;99847.63;;;9.90;nan
55685;BME280;41883;49.544;8.646;2023-04-22T03:53:23;99840.03;;;9.87;nan
55685;BME280;41883;49.544;8.646;2023-04-22T03:55:59;99832.28;;;9.85;nan
55685;BME280;41883;49.544;8.646;2023-04-22T03:58:25;99832.44;;;9.84;nan
55685;BME280;41883;49.544;8.646;2023-04-22T04:01:15;99824.03;;;9.80;nan
55685;BME280;41883;49.544;8.646;2023-04-22T04:03:50;99825.66;;;9.81;nan
55685;BME280;41883;49.544;8.646;2023-04-22T04:06:25;99826.66;;;9.80;nan
55685;BME280;41883;49.544;8.646;2023-04-22T04:08:55;99820.72;;;9.78;nan
55685;BME280;41883;49.544;8.646;2023-04-22T04:11:28;99814.09;;;9.74;nan
55685;BME280;41883;49.544;8.646;2023-04-22T04:13:59;99813.63;;;9.70;nan
55685;BME280;41883;49.544;8.646;2023-04-22T04:16:29;99820.38;;;9.65;nan
55685;BME280;41883;49.544;8.646;2023-04-22T04:19:00;99820.38;;;9.56;nan
55685;BME280;41883;49.544;8.646;2023-04-22T04:21:38;99813.09;;;9.50;nan
55685;BME280;41883;49.544;8.646;2023-04-22T04:24:20;99815.38;;;9.45;nan
55685;BME280;41883;49.544;8.646;2023-04-22T04:26:54;99819.00;;;9.36;nan
55685;BME280;41883;49.544;8.646;2023-04-22T04:29:26;99812.72;;;9.29;nan
55685;BME280;41883;49.544;8.646;2023-04-22T04:32:20;99809.06;;;9.22;nan
55685;BME280;41883;49.544;8.646;2023-04-22T04:35:11;99800.47;;;9.20;nan
55685;BME280;41883;49.544;8.646;2023-04-22T04:37:44;99807.09;;;9.24;nan
55685;BME280;41883;49.544;8.646;2023-04-22T04:40:30;99802.00;;;9.30;nan
55685;BME280;41883;49.544;8.646;2023-04-22T04:45:59;99796.41;;;9.33;nan
55685;BME280;41883;49.544;8.646;2023-04-22T04:48:32;99792.44;;;9.38;nan
55685;BME280;41883;49.544;8.646;2023-04-22T04:51:06;99804.50;;;9.40;nan
55685;BME280;41883;49.544;8.646;2023-04-22T04:53:41;99807.97;;;9.41;nan
55685;BME280;41883;49.544;8.646;2023-04-22T04:56:27;99809.44;;;9.43;nan
55685;BME280;41883;49.544;8.646;2023-04-22T04:59:00;99806.31;;;9.48;nan
55685;BME280;41883;49.544;8.646;2023-04-22T05:01:28;99801.38;;;9.53;nan
55685;BME280;41883;49.544;8.646;2023-04-22T05:03:53;99806.16;;;9.57;nan
55685;BME280;41883;49.544;8.646;2023-04-22T05:06:29;99811.63;;;9.64;nan
55685;BME280;41883;49.544;8.646;2023-04-22T05:09:00;99811.81;;;9.71;nan
55685;BME280;41883;49.544;8.646;2023-04-22T05:14:06;99815.09;;;9.81;nan
55685;BME280;41883;49.544;8.646;2023-04-22T05:19:48;99821.38;;;9.88;nan
55685;BME280;41883;49.544;8.646;2023-04-22T05:22:16;99834.91;;;9.93;nan
55685;BME280;41883;49.544;8.646;2023-04-22T05:24:44;99849.44;;;9.97;nan
55685;BME280;41883;49.544;8.646;2023-04-22T05:27:13;99845.31;;;10.03;nan
55685;BME280;41883;49.544;8.646;2023-04-22T05:29:39;99842.03;;;10.09;nan
55685;BME280;41883;49.544;8.646;2023-04-22T05:32:07;99851.75;;;10.17;nan
55685;BME280;41883;49.544;8.646;2023-04-22T05:37:27;99857.56;;;10.37;nan
55685;BME280;41883;49.544;8.646;2023-04-22T05:39:52;99857.69;;;10.44;nan
55685;BME280;41883;49.544;8.646;2023-04-22T05:42:21;99860.34;;;10.52;nan
55685;BME280;41883;49.544;8.646;2023-04-22T05:44:56;99849.75;;;10.60;nan
55685;BME280;41883;49.544;8.646;2023-04-22T05:47:22;99850.72;;;10.75;nan
55685;BME280;41883;49.544;8.646;2023-04-22T05:49:47;99855.09;;;10.99;nan
55685;BME280;41883;49.544;8.646;2023-04-22T05:52:15;99856.34;;;11.20;nan
55685;BME280;41883;49.544;8.646;2023-04-22T05:54:49;99858.34;;;11.18;nan
55685;BME280;41883;49.544;8.646;2023-04-22T05:57:14;99860.81;;;11.19;nan
55685;BME280;41883;49.544;8.646;2023-04-22T05:59:47;99867.06;;;11.26;nan
55685;BME280;41883;49.544;8.646;2023-04-22T06:02:16;99864.19;;;11.36;nan
55685;BME280;41883;49.544;8.646;2023-04-22T06:04:47;99866.97;;;11.43;nan
55685;BME280;41883;49.544;8.646;2023-04-22T06:07:19;99877.06;;;11.47;nan
55685;BME280;41883;49.544;8.646;2023-04-22T06:09:47;99870.59;;;11.50;nan
55685;BME280;41883;49.544;8.646;2023-04-22T06:12:13;99871.84;;;11.62;nan
55685;BME280;41883;49.544;8.646;2023-04-22T06:14:44;99874.38;;;11.79;nan
55685;BME280;41883;49.544;8.646;2023-04-22T06:17:13;99880.50;;;11.87;nan
55685;BME280;41883;49.544;8.646;2023-04-22T06:19:39;99888.88;;;11.99;nan
55685;BME280;41883;49.544;8.646;2023-04-22T06:22:13;99890.31;;;12.25;nan
55685;BME280;41883;49.544;8.646;2023-04-22T06:24:41;99891.94;;;12.49;nan
55685;BME280;41883;49.544;8.646;2023-04-22T06:27:07;99896.63;;;12.77;nan
55685;BME280;41883;49.544;8.646;2023-04-22T06:29:32;99896.38;;;13.16;nan
55685;BME280;41883;49.544;8.646;2023-04-22T06:32:00;99890.47;;;13.65;nan
55685;BME280;41883;49.544;8.646;2023-04-22T06:34:36;99883.94;;;14.04;nan
55685;BME280;41883;49.544;8.646;2023-04-22T06:37:02;99878.69;;;14.39;nan
55685;BME280;41883;49.544;8.646;2023-04-22T06:39:38;99880.50;;;14.88;nan
55685;BME280;41883;49.544;8.646;2023-04-22T06:42:06;99873.59;;;15.48;nan
55685;BME280;41883;49.544;8.646;2023-04-22T06:44:32;99881.38;;;16.05;nan
55685;BME280;41883;49.544;8.646;2023-04-22T06:46:57;99875.84;;;16.40;nan
55685;BME280;41883;49.544;8.646;2023-04-22T06:49:25;99870.06;;;16.56;nan
55685;BME280;41883;49.544;8.646;2023-04-22T06:51:53;99872.50;;;16.97;nan
55685;BME280;41883;49.544;8.646;2023-04-22T06:54:19;99869.78;;;17.17;nan
55685;BME280;41883;49.544;8.646;2023-04-22T06:56:44;99853.16;;;17.09;nan
55685;BME280;41883;49.544;8.646;2023-04-22T06:59:10;99855.31;;;16.53;nan
55685;BME280;41883;49.544;8.646;2023-04-22T07:01:41;99856.34;;;16.06;nan
55685;BME280;41883;49.544;8.646;2023-04-22T07:07:15;99858.81;;;16.27;nan
55685;BME280;41883;49.544;8.646;2023-04-22T07:09:49;99858.31;;;17.04;nan
55685;BME280;41883;49.544;8.646;2023-04-22T07:12:14;99855.28;;;17.83;nan
55685;BME280;41883;49.544;8.646;2023-04-22T07:14:43;99843.50;;;18.66;nan
55685;BME280;41883;49.544;8.646;2023-04-22T07:20:06;99848.78;;;20.19;nan
55685;BME280;41883;49.544;8.646;2023-04-22T07:22:34;99859.28;;;20.44;nan
55685;BME280;41883;49.544;8.646;2023-04-22T07:25:00;99855.41;;;20.28;nan
55685;BME280;41883;49.544;8.646;2023-04-22T07:27:25;99858.53;;;20.13;nan
55685;BME280;41883;49.544;8.646;2023-04-22T07:29:50;99846.47;;;19.92;nan
55685;BME280;41883;49.544;8.646;2023-04-22T07:32:19;99845.22;;;19.95;nan
55685;BME280;41883;49.544;8.646;2023-04-22T07:37:30;99851.81;;;20.34;nan
55685;BME280;41883;49.544;8.646;2023-04-22T07:39:56;99835.59;;;20.53;nan
55685;BME280;41883;49.544;8.646;2023-04-22T07:42:21;99837.44;;;20.88;nan
55685;BME280;41883;49.544;8.646;2023-04-22T07:44:46;99840.00;;;21.35;nan
55685;BME280;41883;49.544;8.646;2023-04-22T07:47:12;99708.63;;;21.72;nan
55685;BME280;41883;49.544;8.646;2023-04-22T07:49:37;99702.53;;;22.16;nan
55685;BME280;41883;49.544;8.646;2023-04-22T07:52:02;99709.59;;;22.61;nan
55685;BME280;41883;49.544;8.646;2023-04-22T07:54:27;99709.78;;;22.98;nan
55685;BME280;41883;49.544;8.646;2023-04-22T07:56:53;99723.31;;;23.03;nan
55685;BME280;41883;49.544;8.646;2023-04-22T07:59:18;99712.47;;;22.98;nan
55685;BME280;41883;49.544;8.646;2023-04-22T08:01:43;99726.47;;;23.22;nan
55685;BME280;41883;49.544;8.646;2023-04-22T08:04:10;99831.81;;;23.60;nan
55685;BME280;41883;49.544;8.646;2023-04-22T08:06:35;99847.59;;;23.73;nan
55685;BME280;41883;49.544;8.646;2023-04-22T08:09:00;99841.94;;;24.02;nan
55685;BME280;41883;49.544;8.646;2023-04-22T08:11:26;99845.09;;;24.26;nan
55685;BME280;41883;49.544;8.646;2023-04-22T08:13:51;99842.59;;;24.19;nan
55685;BME280;41883;49.544;8.646;2023-04-22T08:16:16;99847.34;;;24.39;nan
55685;BME280;41883;49.544;8.646;2023-04-22T08:18:41;99845.56;;;24.55;nan
55685;BME280;41883;49.544;8.646;2023-04-22T08:21:07;99853.56;;;24.40;nan
55685;BME280;41883;49.544;8.646;2023-04-22T08:23:32;99842.28;;;24.10;nan
55685;BME280;41883;49.544;8.646;2023-04-22T08:25:57;99840.88;;;24.03;nan
55685;BME280;41883;49.544;8.646;2023-04-22T08:28:22;99843.66;;;24.13;nan
55685;BME280;41883;49.544;8.646;2023-04-22T08:30:47;99836.75;;;24.32;nan
55685;BME280;41883;49.544;8.646;2023-04-22T08:33:13;99837.28;;;24.67;nan
55685;BME280;41883;49.544;8.646;2023-04-22T08:35:39;99835.50;;;24.88;nan
55685;BME280;41883;49.544;8.646;2023-04-22T08:38:04;99833.66;;;24.98;nan
55685;BME280;41883;49.544;8.646;2023-04-22T08:40:29;99836.00;;;24.79;nan
55685;BME280;41883;49.544;8.646;2023-04-22T08:42:54;99833.28;;;24.74;nan
55685;BME280;41883;49.544;8.646;2023-04-22T08:45:20;99830.81;;;24.68;nan
55685;BME280;41883;49.544;8.646;2023-04-22T08:47:46;99837.22;;;24.56;nan
55685;BME280;41883;49.544;8.646;2023-04-22T08:50:12;99835.09;;;24.26;nan
55685;BME280;41883;49.544;8.646;2023-04-22T08:52:37;99827.22;;;24.20;nan
55685;BME280;41883;49.544;8.646;2023-04-22T08:55:03;99830.00;;;23.98;nan
55685;BME280;41883;49.544;8.646;2023-04-22T08:57:28;99829.16;;;23.65;nan
55685;BME280;41883;49.544;8.646;2023-04-22T08:59:54;99825.38;;;23.66;nan
55685;BME280;41883;49.544;8.646;2023-04-22T09:02:20;99832.41;;;23.94;nan
55685;BME280;41883;49.544;8.646;2023-04-22T09:04:46;99825.00;;;24.11;nan
55685;BME280;41883;49.544;8.646;2023-04-22T09:07:11;99821.44;;;24.43;nan
55685;BME280;41883;49.544;8.646;2023-04-22T09:09:43;99820.53;;;25.23;nan
55685;BME280;41883;49.544;8.646;2023-04-22T09:12:08;99817.91;;;25.74;nan
55685;BME280;41883;49.544;8.646;2023-04-22T09:14:34;99815.50;;;26.08;nan
55685;BME280;41883;49.544;8.646;2023-04-22T09:16:59;99811.72;;;26.09;nan
55685;BME280;41883;49.544;8.646;2023-04-22T09:19:26;99808.16;;;26.34;nan
55685;BME280;41883;49.544;8.646;2023-04-22T09:21:51;99805.66;;;26.68;nan
55685;BME280;41883;49.544;8.646;2023-04-22T09:24:17;99804.16;;;27.02;nan
55685;BME280;41883;49.544;8.646;2023-04-22T09:26:43;99803.19;;;26.82;nan
55685;BME280;41883;49.544;8.646;2023-04-22T09:29:12;99809.81;;;26.25;nan
55685;BME280;41883;49.544;8.646;2023-04-22T09:31:37;99803.03;;;25.81;nan
55685;BME280;41883;49.544;8.646;2023-04-22T09:34:04;99806.00;;;25.95;nan
55685;BME280;41883;49.544;8.646;2023-04-22T09:36:30;99809.81;;;25.89;nan
55685;BME280;41883;49.544;8.646;2023-04-22T09:38:58;99816.03;;;25.79;nan
55685;BME280;41883;49.544;8.646;2023-04-22T09:41:27;99805.72;;;25.56;nan
55685;BME280;41883;49.544;8.646;2023-04-22T09:43:53;99813.78;;;25.30;nan
55685;BME280;41883;49.544;8.646;2023-04-22T09:46:18;99811.19;;;25.87;nan
55685;BME280;41883;49.544;8.646;2023-04-22T09:48:45;99810.88;;;26.39;nan
55685;BME280;41883;49.544;8.646;2023-04-22T09:51:14;99803.47;;;26.71;nan
55685;BME280;41883;49.544;8.646;2023-04-22T09:53:43;99792.38;;;27.32;nan
55685;BME280;41883;49.544;8.646;2023-04-22T09:56:08;99788.28;;;28.08;nan
55685;BME280;41883;49.544;8.646;2023-04-22T09:58:37;99789.34;;;28.66;nan
55685;BME280;41883;49.544;8.646;2023-04-22T10:01:02;99792.91;;;29.28;nan
55685;BME280;41883;49.544;8.646;2023-04-22T10:03:28;99798.84;;;29.87;nan
55685;BME280;41883;49.544;8.646;2023-04-22T10:05:53;99789.13;;;30.14;nan
55685;BME280;41883;49.544;8.646;2023-04-22T10:08:18;99783.34;;;30.01;nan
55685;BME280;41883;49.544;8.646;2023-04-22T10:10:43;99782.44;;;30.06;nan
55685;BME280;41883;49.544;8.646;2023-04-22T10:13:08;99782.75;;;30.18;nan
55685;BME280;41883;49.544;8.646;2023-04-22T10:15:41;99781.28;;;30.26;nan
55685;BME280;41883;49.544;8.646;2023-04-22T10:18:07;99777.69;;;30.58;nan
55685;BME280;41883;49.544;8.646;2023-04-22T10:20:35;99780.19;;;30.68;nan
55685;BME280;41883;49.544;8.646;2023-04-22T10:23:02;99778.56;;;30.81;nan
55685;BME280;41883;49.544;8.646;2023-04-22T10:25:28;99780.28;;;30.91;nan
55685;BME280;41883;49.544;8.646;2023-04-22T10:27:54;99783.47;;;31.21;nan
55685;BME280;41883;49.544;8.646;2023-04-22T10:30:26;99778.84;;;31.44;nan
55685;BME280;41883;49.544;8.646;2023-04-22T10:32:52;99777.56;;;31.41;nan
55685;BME280;41883;49.544;8.646;2023-04-22T10:35:17;99783.31;;;31.53;nan
55685;BME280;41883;49.544;8.646;2023-04-22T10:42:29;99765.47;;;32.41;24.86
55685;BME280;41883;49.544;8.646;2023-04-22T10:44:59;99768.00;;;32.69;22.95
55685;BME280;41883;49.544;8.646;2023-04-22T10:50:12;99776.66;;;33.54;22.74
55685;BME280;41883;49.544;8.646;2023-04-22T10:52:38;99765.84;;;33.32;22.74
55685;BME280;41883;49.544;8.646;2023-04-22T10:55:04;99762.06;;;32.35;23.44
55685;BME280;41883;49.544;8.646;2023-04-22T10:57:34;99763.09;;;31.27;24.01
55685;BME280;41883;49.544;8.646;2023-04-22T11:00:21;99766.00;;;30.11;26.35
55685;BME280;41883;49.544;8.646;2023-04-22T11:02:51;99755.34;;;30.56;26.06
55685;BME280;41883;49.544;8.646;2023-04-22T11:05:17;99755.50;;;31.38;25.55
55685;BME280;41883;49.544;8.646;2023-04-22T11:07:43;99745.66;;;31.73;24.53
55685;BME280;41883;49.544;8.646;2023-04-22T11:10:08;99747.31;;;31.01;25.39
55685;BME280;41883;49.544;8.646;2023-04-22T11:15:08;99747.09;;;31.70;25.97
55685;BME280;41883;49.544;8.646;2023-04-22T11:17:34;99751.88;;;32.58;23.95
55685;BME280;41883;49.544;8.646;2023-04-22T11:20:00;99753.22;;;32.87;22.67
55685;BME280;41883;49.544;8.646;2023-04-22T11:22:25;99752.13;;;33.40;22.04
55685;BME280;41883;49.544;8.646;2023-04-22T11:24:54;99750.88;;;33.20;22.14
55685;BME280;41883;49.544;8.646;2023-04-22T11:27:20;99755.53;;;33.11;22.61
55685;BME280;41883;49.544;8.646;2023-04-22T11:32:27;99751.88;;;32.27;22.36
55685;BME280;41883;49.544;8.646;2023-04-22T11:34:53;99755.81;;;32.92;21.39
55685;BME280;41883;49.544;8.646;2023-04-22T11:37:18;99754.34;;;32.86;21.51
55685;BME280;41883;49.544;8.646;2023-04-22T11:39:43;99766.28;;;32.99;21.49
55685;BME280;41883;49.544;8.646;2023-04-22T11:42:11;99755.16;;;32.78;21.78
55685;BME280;41883;49.544;8.646;2023-04-22T11:44:36;99754.47;;;32.64;21.66
55685;BME280;41883;49.544;8.646;2023-04-22T11:47:01;99751.94;;;32.93;21.78
55685;BME280;41883;49.544;8.646;2023-04-22T11:49:26;99755.69;;;33.24;22.25
55685;BME280;41883;49.544;8.646;2023-04-22T11:51:55;99741.34;;;33.18;20.44
55685;BME280;41883;49.544;8.646;2023-04-22T11:56:55;99733.56;;;32.36;21.09
55685;BME280;41883;49.544;8.646;2023-04-22T11:59:22;99738.28;;;32.05;21.76
55685;BME280;41883;49.544;8.646;2023-04-22T12:01:48;99732.06;;;31.59;21.42
55685;BME280;41883;49.544;8.646;2023-04-22T12:04:16;99732.31;;;31.13;22.33
55685;BME280;41883;49.544;8.646;2023-04-22T12:06:41;99736.91;;;30.20;22.59
55685;BME280;41883;49.544;8.646;2023-04-22T12:09:06;99722.13;;;29.61;23.65
55685;BME280;41883;49.544;8.646;2023-04-22T12:11:32;99737.88;;;29.64;24.89
55685;BME280;41883;49.544;8.646;2023-04-22T12:13:57;99732.84;;;29.19;23.70
55685;BME280;41883;49.544;8.646;2023-04-22T12:16:40;99735.53;;;28.82;24.50
55685;BME280;41883;49.544;8.646;2023-04-22T12:19:06;99729.97;;;28.20;25.72
55685;BME280;41883;49.544;8.646;2023-04-22T12:21:31;99733.03;;;27.89;26.27
55685;BME280;41883;49.544;8.646;2023-04-22T12:24:00;99733.03;;;27.89;26.37
55685;BME280;41883;49.544;8.646;2023-04-22T12:26:29;99734.50;;;27.71;28.01
55685;BME280;41883;49.544;8.646;2023-04-22T12:28:55;99734.72;;;27.45;26.93
55685;BME280;41883;49.544;8.646;2023-04-22T12:31:20;99738.22;;;27.46;27.32
55685;BME280;41883;49.544;8.646;2023-04-22T12:33:46;99740.50;;;27.33;27.05
55685;BME280;41883;49.544;8.646;2023-04-22T12:36:11;99732.94;;;27.30;27.52
55685;BME280;41883;49.544;8.646;2023-04-22T12:38:37;99734.63;;;27.21;27.56
55685;BME280;41883;49.544;8.646;2023-04-22T12:41:03;99734.75;;;26.90;28.15
55685;BME280;41883;49.544;8.646;2023-04-22T12:43:28;99735.19;;;26.53;28.62
55685;BME280;41883;49.544;8.646;2023-04-22T12:45:56;99734.16;;;26.28;28.73
55685;BME280;41883;49.544;8.646;2023-04-22T12:48:21;99736.94;;;25.98;30.10
55685;BME280;41883;49.544;8.646;2023-04-22T12:50:46;99745.34;;;25.60;30.39
55685;BME280;41883;49.544;8.646;2023-04-22T12:53:11;99735.53;;;25.29;30.30
55685;BME280;41883;49.544;8.646;2023-04-22T12:55:37;99753.31;;;24.99;31.25
55685;BME280;41883;49.544;8.646;2023-04-22T12:58:03;99749.47;;;24.74;30.90
55685;BME280;41883;49.544;8.646;2023-04-22T13:00:28;99747.66;;;24.43;31.42
55685;BME280;41883;49.544;8.646;2023-04-22T13:02:54;99741.56;;;24.15;31.32
55685;BME280;41883;49.544;8.646;2023-04-22T13:05:19;99750.88;;;23.97;31.36
55685;BME280;41883;49.544;8.646;2023-04-22T13:07:44;99743.50;;;23.82;32.33
55685;BME280;41883;49.544;8.646;2023-04-22T13:10:11;99754.59;;;23.59;32.81
55685;BME280;41883;49.544;8.646;2023-04-22T13:12:37;99747.94;;;23.39;33.30
55685;BME280;41883;49.544;8.646;2023-04-22T13:15:03;99745.31;;;23.17;33.70
55685;BME280;41883;49.544;8.646;2023-04-22T13:17:28;99744.19;;;22.91;34.20
55685;BME280;41883;49.544;8.646;2023-04-22T13:19:54;99749.22;;;22.60;34.58
55685;BME280;41883;49.544;8.646;2023-04-22T13:22:19;99752.75;;;22.44;34.46
55685;BME280;41883;49.544;8.646;2023-04-22T13:24:44;99750.47;;;22.19;34.95
55685;BME280;41883;49.544;8.646;2023-04-22T13:27:09;99747.16;;;21.95;35.81
55685;BME280;41883;49.544;8.646;2023-04-22T13:29:35;99749.13;;;21.82;36.26
55685;BME280;41883;49.544;8.646;2023-04-22T13:32:00;99749.38;;;21.64;37.55
55685;BME280;41883;49.544;8.646;2023-04-22T13:34:26;99752.47;;;21.56;36.89
55685;BME280;41883;49.544;8.646;2023-04-22T13:36:51;99758.25;;;21.48;36.90
55685;BME280;41883;49.544;8.646;2023-04-22T13:39:17;99748.00;;;21.33;37.54
55685;BME280;41883;49.544;8.646;2023-04-22T13:41:43;99754.59;;;21.25;37.98
55685;BME280;41883;49.544;8.646;2023-04-22T13:44:12;99752.47;;;21.27;38.01
55685;BME280;41883;49.544;8.646;2023-04-22T13:46:37;99756.06;;;21.33;38.03
55685;BME280;41883;49.544;8.646;2023-04-22T13:49:03;99748.00;;;21.33;37.71
55685;BME280;41883;49.544;8.646;2023-04-22T13:51:28;99750.94;;;21.31;37.73
55685;BME280;41883;49.544;8.646;2023-04-22T13:53:54;99744.53;;;21.20;37.80
55685;BME280;41883;49.544;8.646;2023-04-22T13:56:20;99750.66;;;21.16;37.61
55685;BME280;41883;49.544;8.646;2023-04-22T13:58:45;99745.75;;;21.13;37.38
55685;BME280;41883;49.544;8.646;2023-04-22T14:01:10;99733.38;;;21.12;37.67
55685;BME280;41883;49.544;8.646;2023-04-22T14:03:35;99743.75;;;21.20;39.71
55685;BME280;41883;49.544;8.646;2023-04-22T14:06:01;99739.53;;;21.24;38.23
55685;BME280;41883;49.544;8.646;2023-04-22T14:08:27;99741.72;;;21.27;38.14
55685;BME280;41883;49.544;8.646;2023-04-22T14:10:53;99740.31;;;21.25;38.23